sensor_id;sensor_type;location;lat;lon;timestamp;P1;durP1;ratioP1;P2;durP2;ratioP2
422;SDS011;198;48.752;9.180;2022-08-02T00:01:36;2.83;;;1.80;;
422;SDS011;198;48.752;9.180;2022-08-02T00:04:02;2.50;;;1.70;;
422;SDS011;198;48.752;9.180;2022-08-02T00:06:28;5.47;;;1.90;;
422;SDS011;198;48.752;9.180;2022-08-02T00:08:54;2.90;;;2.20;;
422;SDS011;198;48.752;9.180;2022-08-02T00:11:19;2.27;;;1.67;;
422;SDS011;198;48.752;9.180;2022-08-02T00:13:45;3.00;;;2.07;;
422;SDS011;198;48.752;9.180;2022-08-02T00:16:10;2.47;;;2.00;;
422;SDS011;198;48.752;9.180;2022-08-02T00:18:37;4.60;;;2.57;;
422;SDS011;198;48.752;9.180;2022-08-02T00:21:03;4.40;;;1.70;;
422;SDS011;198;48.752;9.180;2022-08-02T00:23:28;2.43;;;2.00;;
422;SDS011;198;48.752;9.180;2022-08-02T00:25:54;6.30;;;2.60;;
422;SDS011;198;48.752;9.180;2022-08-02T00:28:19;3.40;;;2.37;;
422;SDS011;198;48.752;9.180;2022-08-02T00:30:45;3.50;;;2.63;;
422;SDS011;198;48.752;9.180;2022-08-02T00:33:10;2.80;;;2.00;;
422;SDS011;198;48.752;9.180;2022-08-02T00:35:36;3.63;;;2.50;;
422;SDS011;198;48.752;9.180;2022-08-02T00:38:02;2.03;;;1.90;;
422;SDS011;198;48.752;9.180;2022-08-02T00:40:28;9.73;;;2.90;;
422;SDS011;198;48.752;9.180;2022-08-02T00:43:05;4.33;;;2.80;;
422;SDS011;198;48.752;9.180;2022-08-02T00:45:32;5.00;;;2.67;;
422;SDS011;198;48.752;9.180;2022-08-02T00:47:59;5.43;;;2.60;;
422;SDS011;198;48.752;9.180;2022-08-02T00:50:25;3.77;;;2.90;;
422;SDS011;198;48.752;9.180;2022-08-02T00:52:51;4.53;;;2.10;;
422;SDS011;198;48.752;9.180;2022-08-02T00:55:16;3.97;;;2.80;;
422;SDS011;198;48.752;9.180;2022-08-02T00:57:42;5.00;;;2.50;;
422;SDS011;198;48.752;9.180;2022-08-02T01:00:07;2.93;;;2.33;;
422;SDS011;198;48.752;9.180;2022-08-02T01:02:33;4.37;;;2.40;;
422;SDS011;198;48.752;9.180;2022-08-02T01:04:59;3.50;;;2.70;;
422;SDS011;198;48.752;9.180;2022-08-02T01:07:25;3.53;;;2.03;;
422;SDS011;198;48.752;9.180;2022-08-02T01:09:50;2.90;;;1.93;;
422;SDS011;198;48.752;9.180;2022-08-02T01:12:16;4.77;;;2.30;;
422;SDS011;198;48.752;9.180;2022-08-02T01:14:42;2.80;;;2.07;;
422;SDS011;198;48.752;9.180;2022-08-02T01:17:21;5.90;;;2.23;;
422;SDS011;198;48.752;9.180;2022-08-02T01:25:32;3.20;;;2.20;;
422;SDS011;198;48.752;9.180;2022-08-02T01:28:32;3.40;;;2.13;;
422;SDS011;198;48.752;9.180;2022-08-02T01:33:51;8.33;;;1.97;;
422;SDS011;198;48.752;9.180;2022-08-02T01:36:18;1.93;;;1.70;;
422;SDS011;198;48.752;9.180;2022-08-02T01:38:46;2.63;;;1.73;;
422;SDS011;198;48.752;9.180;2022-08-02T01:41:15;1.83;;;1.80;;
422;SDS011;198;48.752;9.180;2022-08-02T01:43:43;3.60;;;1.90;;
422;SDS011;198;48.752;9.180;2022-08-02T01:46:11;2.70;;;1.90;;
422;SDS011;198;48.752;9.180;2022-08-02T01:48:39;4.17;;;2.47;;
422;SDS011;198;48.752;9.180;2022-08-02T01:51:06;5.20;;;1.90;;
422;SDS011;198;48.752;9.180;2022-08-02T01:53:34;2.97;;;2.00;;
422;SDS011;198;48.752;9.180;2022-08-02T01:56:02;5.47;;;2.10;;
422;SDS011;198;48.752;9.180;2022-08-02T01:58:30;3.00;;;2.47;;
422;SDS011;198;48.752;9.180;2022-08-02T02:01:00;2.83;;;2.20;;
422;SDS011;198;48.752;9.180;2022-08-02T02:03:26;2.20;;;1.50;;
422;SDS011;198;48.752;9.180;2022-08-02T02:05:55;2.43;;;1.60;;
422;SDS011;198;48.752;9.180;2022-08-02T02:08:24;3.03;;;1.90;;
422;SDS011;198;48.752;9.180;2022-08-02T02:10:52;7.70;;;2.43;;
422;SDS011;198;48.752;9.180;2022-08-02T02:13:20;5.13;;;1.60;;
422;SDS011;198;48.752;9.180;2022-08-02T02:15:47;2.83;;;2.20;;
422;SDS011;198;48.752;9.180;2022-08-02T02:18:16;2.50;;;1.73;;
422;SDS011;198;48.752;9.180;2022-08-02T02:20:45;2.20;;;2.00;;
422;SDS011;198;48.752;9.180;2022-08-02T02:23:11;4.00;;;1.60;;
422;SDS011;198;48.752;9.180;2022-08-02T02:25:38;2.80;;;1.77;;
422;SDS011;198;48.752;9.180;2022-08-02T02:28:10;3.37;;;2.10;;
422;SDS011;198;48.752;9.180;2022-08-02T02:30:38;2.40;;;1.97;;
422;SDS011;198;48.752;9.180;2022-08-02T02:33:06;5.17;;;2.10;;
422;SDS011;198;48.752;9.180;2022-08-02T02:35:34;2.53;;;1.93;;
422;SDS011;198;48.752;9.180;2022-08-02T02:38:02;8.13;;;2.30;;
422;SDS011;198;48.752;9.180;2022-08-02T02:40:31;1.43;;;1.33;;
422;SDS011;198;48.752;9.180;2022-08-02T02:42:59;2.57;;;2.20;;
422;SDS011;198;48.752;9.180;2022-08-02T02:45:26;3.23;;;1.90;;
422;SDS011;198;48.752;9.180;2022-08-02T02:47:53;1.70;;;1.60;;
422;SDS011;198;48.752;9.180;2022-08-02T02:50:19;4.40;;;1.70;;
422;SDS011;198;48.752;9.180;2022-08-02T02:52:46;3.90;;;1.80;;
422;SDS011;198;48.752;9.180;2022-08-02T02:55:12;6.87;;;1.60;;
422;SDS011;198;48.752;9.180;2022-08-02T02:57:38;1.73;;;1.70;;
422;SDS011;198;48.752;9.180;2022-08-02T03:00:08;1.80;;;1.60;;
422;SDS011;198;48.752;9.180;2022-08-02T03:02:36;2.27;;;1.90;;
422;SDS011;198;48.752;9.180;2022-08-02T03:05:04;1.60;;;1.50;;
422;SDS011;198;48.752;9.180;2022-08-02T03:07:31;2.93;;;1.60;;
422;SDS011;198;48.752;9.180;2022-08-02T03:09:57;4.10;;;1.80;;
422;SDS011;198;48.752;9.180;2022-08-02T03:12:23;2.37;;;1.70;;
422;SDS011;198;48.752;9.180;2022-08-02T03:14:50;1.63;;;1.50;;
422;SDS011;198;48.752;9.180;2022-08-02T03:17:16;4.43;;;1.60;;
422;SDS011;198;48.752;9.180;2022-08-02T03:19:41;3.40;;;1.63;;
422;SDS011;198;48.752;9.180;2022-08-02T03:22:08;3.00;;;2.20;;
422;SDS011;198;48.752;9.180;2022-08-02T03:24:35;4.37;;;2.10;;
422;SDS011;198;48.752;9.180;2022-08-02T03:27:00;1.63;;;1.60;;
422;SDS011;198;48.752;9.180;2022-08-02T03:29:26;2.60;;;2.03;;
422;SDS011;198;48.752;9.180;2022-08-02T03:31:52;2.40;;;1.90;;
422;SDS011;198;48.752;9.180;2022-08-02T03:34:18;2.33;;;2.03;;
422;SDS011;198;48.752;9.180;2022-08-02T03:36:45;2.57;;;2.07;;
422;SDS011;198;48.752;9.180;2022-08-02T03:39:14;3.57;;;1.90;;
422;SDS011;198;48.752;9.180;2022-08-02T03:41:40;1.87;;;1.77;;
422;SDS011;198;48.752;9.180;2022-08-02T03:44:07;4.07;;;2.40;;
422;SDS011;198;48.752;9.180;2022-08-02T03:46:34;3.50;;;2.10;;
422;SDS011;198;48.752;9.180;2022-08-02T03:49:03;3.10;;;2.27;;
422;SDS011;198;48.752;9.180;2022-08-02T03:51:29;2.30;;;1.73;;
422;SDS011;198;48.752;9.180;2022-08-02T03:53:55;1.97;;;1.60;;
422;SDS011;198;48.752;9.180;2022-08-02T03:56:21;3.70;;;1.93;;
422;SDS011;198;48.752;9.180;2022-08-02T03:58:47;1.97;;;1.50;;
422;SDS011;198;48.752;9.180;2022-08-02T04:01:12;2.97;;;1.80;;
422;SDS011;198;48.752;9.180;2022-08-02T04:03:38;4.43;;;1.70;;
422;SDS011;198;48.752;9.180;2022-08-02T04:06:03;2.53;;;2.10;;
422;SDS011;198;48.752;9.180;2022-08-02T04:08:29;3.80;;;1.90;;
422;SDS011;198;48.752;9.180;2022-08-02T04:10:54;1.70;;;1.60;;
422;SDS011;198;48.752;9.180;2022-08-02T04:13:39;2.60;;;1.70;;
422;SDS011;198;48.752;9.180;2022-08-02T04:19:09;2.13;;;1.83;;
422;SDS011;198;48.752;9.180;2022-08-02T04:21:39;2.40;;;1.77;;
422;SDS011;198;48.752;9.180;2022-08-02T04:24:06;8.33;;;1.90;;
422;SDS011;198;48.752;9.180;2022-08-02T04:26:33;2.23;;;1.80;;
422;SDS011;198;48.752;9.180;2022-08-02T04:29:00;1.73;;;1.67;;
422;SDS011;198;48.752;9.180;2022-08-02T04:31:26;2.03;;;1.97;;
422;SDS011;198;48.752;9.180;2022-08-02T04:33:52;7.13;;;2.03;;
422;SDS011;198;48.752;9.180;2022-08-02T04:36:19;3.23;;;2.50;;
422;SDS011;198;48.752;9.180;2022-08-02T04:38:44;3.17;;;2.83;;
422;SDS011;198;48.752;9.180;2022-08-02T04:41:13;2.70;;;2.27;;
422;SDS011;198;48.752;9.180;2022-08-02T04:43:38;3.07;;;2.30;;
422;SDS011;198;48.752;9.180;2022-08-02T04:46:04;7.20;;;2.40;;
422;SDS011;198;48.752;9.180;2022-08-02T04:48:30;2.37;;;2.20;;
422;SDS011;198;48.752;9.180;2022-08-02T04:50:55;3.40;;;2.07;;
422;SDS011;198;48.752;9.180;2022-08-02T04:53:21;3.27;;;2.40;;
422;SDS011;198;48.752;9.180;2022-08-02T04:55:46;2.50;;;1.90;;
422;SDS011;198;48.752;9.180;2022-08-02T04:58:12;8.50;;;2.80;;
422;SDS011;198;48.752;9.180;2022-08-02T05:00:38;2.20;;;1.90;;
422;SDS011;198;48.752;9.180;2022-08-02T05:03:04;4.57;;;2.70;;
422;SDS011;198;48.752;9.180;2022-08-02T05:05:30;3.17;;;1.77;;
422;SDS011;198;48.752;9.180;2022-08-02T05:07:55;2.47;;;2.27;;
422;SDS011;198;48.752;9.180;2022-08-02T05:10:21;2.13;;;1.97;;
422;SDS011;198;48.752;9.180;2022-08-02T05:12:48;4.40;;;1.80;;
422;SDS011;198;48.752;9.180;2022-08-02T05:15:14;6.30;;;2.60;;
422;SDS011;198;48.752;9.180;2022-08-02T05:17:42;4.10;;;2.40;;
422;SDS011;198;48.752;9.180;2022-08-02T05:20:11;14.23;;;3.30;;
422;SDS011;198;48.752;9.180;2022-08-02T05:22:37;2.47;;;2.30;;
422;SDS011;198;48.752;9.180;2022-08-02T05:25:03;4.07;;;3.13;;
422;SDS011;198;48.752;9.180;2022-08-02T05:27:29;2.77;;;2.40;;
422;SDS011;198;48.752;9.180;2022-08-02T05:29:57;3.40;;;3.13;;
422;SDS011;198;48.752;9.180;2022-08-02T05:32:22;13.17;;;2.60;;
422;SDS011;198;48.752;9.180;2022-08-02T05:34:48;3.93;;;2.70;;
422;SDS011;198;48.752;9.180;2022-08-02T05:37:13;16.43;;;2.57;;
422;SDS011;198;48.752;9.180;2022-08-02T05:39:39;3.27;;;2.57;;
422;SDS011;198;48.752;9.180;2022-08-02T05:42:05;5.20;;;3.07;;
422;SDS011;198;48.752;9.180;2022-08-02T05:44:30;5.23;;;2.90;;
422;SDS011;198;48.752;9.180;2022-08-02T05:46:56;4.33;;;2.83;;
422;SDS011;198;48.752;9.180;2022-08-02T05:49:21;2.40;;;2.13;;
422;SDS011;198;48.752;9.180;2022-08-02T05:51:51;6.70;;;2.83;;
422;SDS011;198;48.752;9.180;2022-08-02T05:59:46;4.23;;;1.93;;
422;SDS011;198;48.752;9.180;2022-08-02T06:02:28;4.23;;;2.93;;
422;SDS011;198;48.752;9.180;2022-08-02T06:05:02;3.67;;;2.40;;
422;SDS011;198;48.752;9.180;2022-08-02T06:07:34;9.37;;;3.33;;
422;SDS011;198;48.752;9.180;2022-08-02T06:10:02;3.70;;;2.37;;
422;SDS011;198;48.752;9.180;2022-08-02T06:12:29;6.10;;;2.67;;
422;SDS011;198;48.752;9.180;2022-08-02T06:14:57;3.40;;;2.47;;
422;SDS011;198;48.752;9.180;2022-08-02T06:17:23;3.87;;;2.40;;
422;SDS011;198;48.752;9.180;2022-08-02T06:19:49;6.40;;;3.60;;
422;SDS011;198;48.752;9.180;2022-08-02T06:22:17;6.87;;;3.20;;
422;SDS011;198;48.752;9.180;2022-08-02T06:24:44;4.43;;;2.60;;
422;SDS011;198;48.752;9.180;2022-08-02T06:27:13;4.70;;;3.03;;
422;SDS011;198;48.752;9.180;2022-08-02T06:29:39;3.57;;;2.40;;
422;SDS011;198;48.752;9.180;2022-08-02T06:32:06;5.07;;;2.80;;
422;SDS011;198;48.752;9.180;2022-08-02T06:34:36;6.90;;;4.10;;
422;SDS011;198;48.752;9.180;2022-08-02T06:37:13;4.50;;;3.40;;
422;SDS011;198;48.752;9.180;2022-08-02T06:39:46;7.33;;;3.00;;
422;SDS011;198;48.752;9.180;2022-08-02T06:42:15;5.63;;;3.17;;
422;SDS011;198;48.752;9.180;2022-08-02T06:44:48;6.07;;;4.20;;
422;SDS011;198;48.752;9.180;2022-08-02T06:47:13;9.07;;;3.17;;
422;SDS011;198;48.752;9.180;2022-08-02T06:49:39;9.13;;;2.80;;
422;SDS011;198;48.752;9.180;2022-08-02T06:52:05;3.10;;;2.60;;
422;SDS011;198;48.752;9.180;2022-08-02T06:54:30;14.43;;;3.60;;
422;SDS011;198;48.752;9.180;2022-08-02T06:56:56;27.47;;;3.80;;
422;SDS011;198;48.752;9.180;2022-08-02T06:59:21;3.83;;;2.97;;
422;SDS011;198;48.752;9.180;2022-08-02T07:01:47;5.50;;;3.53;;
422;SDS011;198;48.752;9.180;2022-08-02T07:04:12;11.53;;;4.50;;
422;SDS011;198;48.752;9.180;2022-08-02T07:06:38;5.13;;;3.40;;
422;SDS011;198;48.752;9.180;2022-08-02T07:09:04;6.40;;;3.20;;
422;SDS011;198;48.752;9.180;2022-08-02T07:11:29;6.80;;;3.20;;
422;SDS011;198;48.752;9.180;2022-08-02T07:13:55;9.90;;;3.80;;
422;SDS011;198;48.752;9.180;2022-08-02T07:16:20;9.50;;;4.03;;
422;SDS011;198;48.752;9.180;2022-08-02T07:18:46;7.00;;;4.20;;
422;SDS011;198;48.752;9.180;2022-08-02T07:21:11;7.93;;;4.30;;
422;SDS011;198;48.752;9.180;2022-08-02T07:23:37;6.93;;;4.63;;
422;SDS011;198;48.752;9.180;2022-08-02T07:26:02;7.10;;;3.60;;
422;SDS011;198;48.752;9.180;2022-08-02T07:28:28;4.80;;;3.30;;
422;SDS011;198;48.752;9.180;2022-08-02T07:30:53;13.73;;;4.30;;
422;SDS011;198;48.752;9.180;2022-08-02T07:33:19;8.93;;;3.60;;
422;SDS011;198;48.752;9.180;2022-08-02T07:35:44;8.77;;;4.10;;
422;SDS011;198;48.752;9.180;2022-08-02T07:38:10;9.67;;;3.97;;
422;SDS011;198;48.752;9.180;2022-08-02T07:40:35;8.57;;;3.93;;
422;SDS011;198;48.752;9.180;2022-08-02T07:43:01;6.20;;;3.70;;
422;SDS011;198;48.752;9.180;2022-08-02T07:45:27;4.90;;;3.67;;
422;SDS011;198;48.752;9.180;2022-08-02T07:47:52;6.60;;;3.90;;
422;SDS011;198;48.752;9.180;2022-08-02T07:50:19;4.33;;;2.97;;
422;SDS011;198;48.752;9.180;2022-08-02T07:52:45;3.60;;;3.10;;
422;SDS011;198;48.752;9.180;2022-08-02T07:55:12;6.63;;;4.17;;
422;SDS011;198;48.752;9.180;2022-08-02T07:57:39;5.73;;;4.00;;
422;SDS011;198;48.752;9.180;2022-08-02T08:00:06;10.23;;;3.70;;
422;SDS011;198;48.752;9.180;2022-08-02T08:02:33;6.80;;;4.27;;
422;SDS011;198;48.752;9.180;2022-08-02T08:04:59;4.87;;;3.30;;
422;SDS011;198;48.752;9.180;2022-08-02T08:07:24;4.67;;;3.40;;
422;SDS011;198;48.752;9.180;2022-08-02T08:09:50;5.70;;;3.50;;
422;SDS011;198;48.752;9.180;2022-08-02T08:12:16;4.67;;;3.17;;
422;SDS011;198;48.752;9.180;2022-08-02T08:14:41;4.30;;;3.10;;
422;SDS011;198;48.752;9.180;2022-08-02T08:17:08;4.47;;;2.83;;
422;SDS011;198;48.752;9.180;2022-08-02T08:19:33;7.00;;;3.13;;
422;SDS011;198;48.752;9.180;2022-08-02T08:21:59;6.60;;;4.10;;
422;SDS011;198;48.752;9.180;2022-08-02T08:24:26;5.40;;;3.60;;
422;SDS011;198;48.752;9.180;2022-08-02T08:26:52;7.43;;;3.77;;
422;SDS011;198;48.752;9.180;2022-08-02T08:29:18;6.03;;;3.97;;
422;SDS011;198;48.752;9.180;2022-08-02T08:31:43;8.33;;;4.30;;
422;SDS011;198;48.752;9.180;2022-08-02T08:34:09;5.80;;;3.60;;
422;SDS011;198;48.752;9.180;2022-08-02T08:36:34;8.63;;;4.27;;
422;SDS011;198;48.752;9.180;2022-08-02T08:39:01;11.90;;;3.90;;
422;SDS011;198;48.752;9.180;2022-08-02T08:41:27;6.53;;;3.87;;
422;SDS011;198;48.752;9.180;2022-08-02T08:43:53;8.77;;;4.20;;
422;SDS011;198;48.752;9.180;2022-08-02T08:46:26;9.40;;;4.33;;
422;SDS011;198;48.752;9.180;2022-08-02T08:48:58;14.40;;;4.37;;
422;SDS011;198;48.752;9.180;2022-08-02T08:51:27;5.60;;;3.33;;
422;SDS011;198;48.752;9.180;2022-08-02T08:54:01;8.87;;;4.80;;
422;SDS011;198;48.752;9.180;2022-08-02T08:56:32;8.50;;;3.60;;
422;SDS011;198;48.752;9.180;2022-08-02T08:58:59;6.03;;;3.57;;
422;SDS011;198;48.752;9.180;2022-08-02T09:01:25;9.93;;;4.90;;
422;SDS011;198;48.752;9.180;2022-08-02T09:03:51;6.97;;;3.53;;
422;SDS011;198;48.752;9.180;2022-08-02T09:06:16;6.13;;;3.40;;
422;SDS011;198;48.752;9.180;2022-08-02T09:08:42;6.50;;;3.37;;
422;SDS011;198;48.752;9.180;2022-08-02T09:11:11;11.53;;;3.20;;
422;SDS011;198;48.752;9.180;2022-08-02T09:13:38;4.00;;;3.00;;
422;SDS011;198;48.752;9.180;2022-08-02T09:16:33;6.20;;;3.63;;
422;SDS011;198;48.752;9.180;2022-08-02T09:19:01;4.80;;;3.53;;
422;SDS011;198;48.752;9.180;2022-08-02T09:21:51;6.03;;;3.50;;
422;SDS011;198;48.752;9.180;2022-08-02T09:24:24;8.40;;;3.40;;
422;SDS011;198;48.752;9.180;2022-08-02T09:26:50;4.13;;;2.90;;
422;SDS011;198;48.752;9.180;2022-08-02T09:29:16;3.37;;;3.10;;
422;SDS011;198;48.752;9.180;2022-08-02T09:31:45;6.60;;;3.00;;
422;SDS011;198;48.752;9.180;2022-08-02T09:34:11;3.73;;;3.10;;
422;SDS011;198;48.752;9.180;2022-08-02T09:36:38;5.10;;;3.20;;
422;SDS011;198;48.752;9.180;2022-08-02T09:39:07;5.27;;;4.00;;
422;SDS011;198;48.752;9.180;2022-08-02T09:41:35;6.93;;;4.40;;
422;SDS011;198;48.752;9.180;2022-08-02T09:44:07;4.20;;;3.20;;
422;SDS011;198;48.752;9.180;2022-08-02T09:46:40;7.87;;;3.60;;
422;SDS011;198;48.752;9.180;2022-08-02T09:49:08;4.30;;;3.60;;
422;SDS011;198;48.752;9.180;2022-08-02T09:51:35;3.77;;;3.10;;
422;SDS011;198;48.752;9.180;2022-08-02T09:54:04;3.53;;;2.80;;
422;SDS011;198;48.752;9.180;2022-08-02T09:57:05;4.73;;;3.20;;
422;SDS011;198;48.752;9.180;2022-08-02T09:59:25;4.90;;;2.63;;
422;SDS011;198;48.752;9.180;2022-08-02T10:01:52;5.90;;;2.90;;
422;SDS011;198;48.752;9.180;2022-08-02T10:04:19;3.60;;;2.87;;
422;SDS011;198;48.752;9.180;2022-08-02T10:06:46;5.37;;;3.03;;
422;SDS011;198;48.752;9.180;2022-08-02T10:09:13;2.83;;;2.63;;
422;SDS011;198;48.752;9.180;2022-08-02T10:11:39;4.30;;;3.20;;
422;SDS011;198;48.752;9.180;2022-08-02T10:14:06;4.00;;;3.23;;
422;SDS011;198;48.752;9.180;2022-08-02T10:16:34;2.80;;;2.70;;
422;SDS011;198;48.752;9.180;2022-08-02T10:19:01;4.57;;;3.40;;
422;SDS011;198;48.752;9.180;2022-08-02T10:21:29;3.90;;;3.20;;
422;SDS011;198;48.752;9.180;2022-08-02T10:26:34;4.50;;;3.63;;
422;SDS011;198;48.752;9.180;2022-08-02T10:29:02;5.33;;;3.70;;
422;SDS011;198;48.752;9.180;2022-08-02T10:31:30;3.13;;;2.93;;
422;SDS011;198;48.752;9.180;2022-08-02T10:34:02;3.70;;;2.90;;
422;SDS011;198;48.752;9.180;2022-08-02T10:36:33;6.23;;;2.50;;
422;SDS011;198;48.752;9.180;2022-08-02T10:39:03;6.07;;;2.37;;
422;SDS011;198;48.752;9.180;2022-08-02T10:41:39;5.40;;;2.53;;
422;SDS011;198;48.752;9.180;2022-08-02T10:44:04;2.67;;;2.40;;
422;SDS011;198;48.752;9.180;2022-08-02T10:46:31;2.60;;;2.10;;
422;SDS011;198;48.752;9.180;2022-08-02T10:54:17;6.83;;;2.23;;
422;SDS011;198;48.752;9.180;2022-08-02T10:56:47;3.53;;;3.37;;
422;SDS011;198;48.752;9.180;2022-08-02T10:59:32;2.13;;;1.97;;
422;SDS011;198;48.752;9.180;2022-08-02T11:02:00;4.90;;;2.50;;
422;SDS011;198;48.752;9.180;2022-08-02T11:05:14;3.60;;;2.60;;
422;SDS011;198;48.752;9.180;2022-08-02T11:07:15;3.80;;;2.67;;
422;SDS011;198;48.752;9.180;2022-08-02T11:09:54;1.83;;;1.73;;
422;SDS011;198;48.752;9.180;2022-08-02T11:12:21;3.75;;;2.20;;
422;SDS011;198;48.752;9.180;2022-08-02T11:15:00;2.65;;;2.05;;
422;SDS011;198;48.752;9.180;2022-08-02T11:20:22;2.53;;;1.85;;
422;SDS011;198;48.752;9.180;2022-08-02T11:22:50;3.05;;;2.40;;
422;SDS011;198;48.752;9.180;2022-08-02T11:27:49;3.03;;;2.60;;
422;SDS011;198;48.752;9.180;2022-08-02T11:30:15;10.47;;;2.73;;
422;SDS011;198;48.752;9.180;2022-08-02T11:32:41;2.77;;;2.10;;
422;SDS011;198;48.752;9.180;2022-08-02T11:35:07;4.17;;;3.60;;
422;SDS011;198;48.752;9.180;2022-08-02T11:37:43;3.90;;;2.43;;
422;SDS011;198;48.752;9.180;2022-08-02T11:40:13;7.13;;;3.10;;
422;SDS011;198;48.752;9.180;2022-08-02T11:42:41;4.53;;;2.90;;
422;SDS011;198;48.752;9.180;2022-08-02T11:45:08;3.37;;;3.07;;
422;SDS011;198;48.752;9.180;2022-08-02T11:47:45;6.53;;;2.63;;
422;SDS011;198;48.752;9.180;2022-08-02T11:50:11;6.87;;;3.20;;
422;SDS011;198;48.752;9.180;2022-08-02T11:52:37;2.53;;;2.33;;
422;SDS011;198;48.752;9.180;2022-08-02T11:55:04;4.03;;;2.80;;
422;SDS011;198;48.752;9.180;2022-08-02T11:57:31;3.53;;;2.70;;
422;SDS011;198;48.752;9.180;2022-08-02T11:59:57;9.70;;;2.63;;
422;SDS011;198;48.752;9.180;2022-08-02T12:02:27;2.23;;;2.03;;
422;SDS011;198;48.752;9.180;2022-08-02T12:05:03;3.10;;;2.70;;
422;SDS011;198;48.752;9.180;2022-08-02T12:07:34;5.22;;;3.17;;
422;SDS011;198;48.752;9.180;2022-08-02T12:10:08;2.60;;;2.43;;
422;SDS011;198;48.752;9.180;2022-08-02T12:15:40;2.83;;;1.73;;
422;SDS011;198;48.752;9.180;2022-08-02T12:18:14;3.58;;;1.65;;
422;SDS011;198;48.752;9.180;2022-08-02T12:21:00;3.10;;;2.28;;
422;SDS011;198;48.752;9.180;2022-08-02T12:23:26;3.08;;;2.88;;
422;SDS011;198;48.752;9.180;2022-08-02T12:26:25;3.97;;;2.10;;
422;SDS011;198;48.752;9.180;2022-08-02T12:28:44;4.15;;;2.45;;
422;SDS011;198;48.752;9.180;2022-08-02T12:31:10;2.15;;;1.95;;
422;SDS011;198;48.752;9.180;2022-08-02T12:33:49;2.57;;;2.37;;
422;SDS011;198;48.752;9.180;2022-08-02T12:36:20;4.83;;;2.70;;
422;SDS011;198;48.752;9.180;2022-08-02T12:38:57;12.93;;;2.60;;
422;SDS011;198;48.752;9.180;2022-08-02T12:41:24;2.90;;;2.30;;
422;SDS011;198;48.752;9.180;2022-08-02T12:43:51;2.07;;;1.97;;
422;SDS011;198;48.752;9.180;2022-08-02T12:46:19;2.58;;;2.22;;
422;SDS011;198;48.752;9.180;2022-08-02T12:48:46;4.97;;;2.13;;
422;SDS011;198;48.752;9.180;2022-08-02T12:51:21;7.10;;;2.20;;
422;SDS011;198;48.752;9.180;2022-08-02T12:53:49;3.05;;;2.40;;
422;SDS011;198;48.752;9.180;2022-08-02T12:56:28;1.98;;;1.83;;
422;SDS011;198;48.752;9.180;2022-08-02T12:58:55;4.30;;;2.30;;
422;SDS011;198;48.752;9.180;2022-08-02T13:01:21;1.90;;;1.83;;
422;SDS011;198;48.752;9.180;2022-08-02T13:03:49;3.35;;;2.40;;
422;SDS011;198;48.752;9.180;2022-08-02T13:06:16;5.30;;;2.30;;
422;SDS011;198;48.752;9.180;2022-08-02T13:08:43;2.78;;;2.60;;
422;SDS011;198;48.752;9.180;2022-08-02T13:11:08;3.80;;;2.40;;
422;SDS011;198;48.752;9.180;2022-08-02T13:13:34;2.80;;;2.50;;
422;SDS011;198;48.752;9.180;2022-08-02T13:16:00;2.35;;;2.10;;
422;SDS011;198;48.752;9.180;2022-08-02T13:18:25;2.30;;;2.20;;
422;SDS011;198;48.752;9.180;2022-08-02T13:20:51;5.60;;;2.33;;
422;SDS011;198;48.752;9.180;2022-08-02T13:23:16;3.30;;;2.40;;
422;SDS011;198;48.752;9.180;2022-08-02T13:25:42;2.55;;;2.35;;
422;SDS011;198;48.752;9.180;2022-08-02T13:28:08;2.55;;;1.95;;
422;SDS011;198;48.752;9.180;2022-08-02T13:30:33;1.70;;;1.60;;
422;SDS011;198;48.752;9.180;2022-08-02T13:32:59;3.60;;;2.20;;
422;SDS011;198;48.752;9.180;2022-08-02T13:35:24;1.77;;;1.67;;
422;SDS011;198;48.752;9.180;2022-08-02T13:37:51;2.53;;;2.38;;
422;SDS011;198;48.752;9.180;2022-08-02T13:40:16;2.20;;;1.90;;
422;SDS011;198;48.752;9.180;2022-08-02T13:42:42;3.25;;;2.17;;
422;SDS011;198;48.752;9.180;2022-08-02T13:45:08;3.03;;;2.47;;
422;SDS011;198;48.752;9.180;2022-08-02T13:47:35;2.35;;;2.15;;
422;SDS011;198;48.752;9.180;2022-08-02T13:50:02;4.72;;;1.60;;
422;SDS011;198;48.752;9.180;2022-08-02T13:52:28;1.90;;;1.80;;
422;SDS011;198;48.752;9.180;2022-08-02T13:54:54;3.20;;;1.90;;
422;SDS011;198;48.752;9.180;2022-08-02T13:57:19;1.70;;;1.60;;
422;SDS011;198;48.752;9.180;2022-08-02T13:59:45;2.23;;;1.70;;
422;SDS011;198;48.752;9.180;2022-08-02T14:02:10;2.50;;;2.30;;
422;SDS011;198;48.752;9.180;2022-08-02T14:04:36;2.37;;;2.17;;
422;SDS011;198;48.752;9.180;2022-08-02T14:07:02;1.87;;;1.77;;
422;SDS011;198;48.752;9.180;2022-08-02T14:09:28;3.10;;;2.40;;
422;SDS011;198;48.752;9.180;2022-08-02T14:11:56;2.00;;;1.90;;
422;SDS011;198;48.752;9.180;2022-08-02T14:14:22;1.98;;;1.80;;
422;SDS011;198;48.752;9.180;2022-08-02T14:16:48;2.17;;;1.67;;
422;SDS011;198;48.752;9.180;2022-08-02T14:19:13;2.07;;;1.93;;
422;SDS011;198;48.752;9.180;2022-08-02T14:21:39;2.27;;;2.07;;
422;SDS011;198;48.752;9.180;2022-08-02T14:24:05;3.23;;;2.00;;
422;SDS011;198;48.752;9.180;2022-08-02T14:26:30;2.23;;;2.10;;
422;SDS011;198;48.752;9.180;2022-08-02T14:28:56;2.63;;;1.93;;
422;SDS011;198;48.752;9.180;2022-08-02T14:31:21;5.50;;;2.40;;
422;SDS011;198;48.752;9.180;2022-08-02T14:33:47;2.20;;;1.97;;
422;SDS011;198;48.752;9.180;2022-08-02T14:36:12;4.73;;;2.60;;
422;SDS011;198;48.752;9.180;2022-08-02T14:38:38;2.90;;;2.67;;
422;SDS011;198;48.752;9.180;2022-08-02T14:41:04;3.72;;;1.98;;
422;SDS011;198;48.752;9.180;2022-08-02T14:43:30;2.00;;;1.92;;
422;SDS011;198;48.752;9.180;2022-08-02T14:46:14;2.03;;;1.92;;
422;SDS011;198;48.752;9.180;2022-08-02T14:48:39;1.40;;;1.30;;
422;SDS011;198;48.752;9.180;2022-08-02T14:51:05;2.08;;;1.95;;
422;SDS011;198;48.752;9.180;2022-08-02T14:53:30;1.80;;;1.70;;
422;SDS011;198;48.752;9.180;2022-08-02T14:55:56;3.78;;;2.40;;
422;SDS011;198;48.752;9.180;2022-08-02T14:58:21;1.70;;;1.60;;
422;SDS011;198;48.752;9.180;2022-08-02T15:00:47;1.88;;;1.67;;
422;SDS011;198;48.752;9.180;2022-08-02T15:03:13;3.33;;;1.87;;
422;SDS011;198;48.752;9.180;2022-08-02T15:05:38;3.60;;;2.27;;
422;SDS011;198;48.752;9.180;2022-08-02T15:08:04;9.13;;;2.50;;
422;SDS011;198;48.752;9.180;2022-08-02T15:10:30;1.97;;;1.70;;
422;SDS011;198;48.752;9.180;2022-08-02T15:12:55;2.93;;;2.37;;
422;SDS011;198;48.752;9.180;2022-08-02T15:15:21;4.83;;;1.87;;
422;SDS011;198;48.752;9.180;2022-08-02T15:17:49;2.33;;;1.80;;
422;SDS011;198;48.752;9.180;2022-08-02T15:20:15;2.93;;;1.70;;
422;SDS011;198;48.752;9.180;2022-08-02T15:22:41;1.83;;;1.60;;
422;SDS011;198;48.752;9.180;2022-08-02T15:25:06;2.70;;;2.27;;
422;SDS011;198;48.752;9.180;2022-08-02T15:27:32;1.47;;;1.37;;
422;SDS011;198;48.752;9.180;2022-08-02T15:29:57;1.90;;;1.80;;
422;SDS011;198;48.752;9.180;2022-08-02T15:32:25;1.53;;;1.53;;
422;SDS011;198;48.752;9.180;2022-08-02T15:34:51;2.30;;;2.10;;
422;SDS011;198;48.752;9.180;2022-08-02T15:37:17;2.23;;;2.03;;
422;SDS011;198;48.752;9.180;2022-08-02T15:39:42;2.53;;;2.37;;
422;SDS011;198;48.752;9.180;2022-08-02T15:42:08;1.90;;;1.80;;
422;SDS011;198;48.752;9.180;2022-08-02T15:44:34;1.70;;;1.60;;
422;SDS011;198;48.752;9.180;2022-08-02T15:47:00;1.57;;;1.50;;
422;SDS011;198;48.752;9.180;2022-08-02T15:49:28;2.67;;;1.65;;
422;SDS011;198;48.752;9.180;2022-08-02T15:51:53;1.70;;;1.60;;
422;SDS011;198;48.752;9.180;2022-08-02T15:54:19;2.70;;;1.50;;
422;SDS011;198;48.752;9.180;2022-08-02T15:56:44;3.07;;;2.17;;
422;SDS011;198;48.752;9.180;2022-08-02T15:59:10;1.98;;;1.58;;
422;SDS011;198;48.752;9.180;2022-08-02T16:01:36;2.10;;;1.83;;
422;SDS011;198;48.752;9.180;2022-08-02T16:04:02;2.57;;;1.50;;
422;SDS011;198;48.752;9.180;2022-08-02T16:06:27;2.13;;;1.53;;
422;SDS011;198;48.752;9.180;2022-08-02T16:08:53;2.73;;;1.70;;
422;SDS011;198;48.752;9.180;2022-08-02T16:11:18;1.53;;;1.43;;
422;SDS011;198;48.752;9.180;2022-08-02T16:13:44;2.97;;;2.20;;
422;SDS011;198;48.752;9.180;2022-08-02T16:16:19;15.23;;;2.00;;
422;SDS011;198;48.752;9.180;2022-08-02T16:18:49;4.03;;;1.40;;
422;SDS011;198;48.752;9.180;2022-08-02T16:21:15;5.70;;;1.73;;